createdAt,value
2022-12-02T00:02:21.377Z,2.40
2022-12-02T00:04:58.604Z,2.60
2022-12-02T00:07:25.517Z,2.33
2022-12-02T00:09:52.605Z,2.60
2022-12-02T00:12:22.503Z,2.20
2022-12-02T00:14:57.650Z,2.28
2022-12-02T00:17:24.797Z,2.63
2022-12-02T00:19:52.539Z,2.72
2022-12-02T00:22:20.335Z,2.00
2022-12-02T00:24:47.232Z,2.15
2022-12-02T00:27:14.020Z,2.47
2022-12-02T00:29:40.703Z,3.38
2022-12-02T00:32:07.733Z,2.45
2022-12-02T00:34:34.600Z,2.65
2022-12-02T00:37:01.287Z,2.47
2022-12-02T00:39:27.928Z,2.90
2022-12-02T00:41:54.597Z,3.45
2022-12-02T00:44:39.713Z,2.30
2022-12-02T00:47:06.455Z,2.10
2022-12-02T00:49:33.095Z,4.15
2022-12-02T00:51:59.840Z,2.28
2022-12-02T00:54:26.550Z,2.47
2022-12-02T00:56:53.233Z,2.10
2022-12-02T00:59:20.108Z,2.40
2022-12-02T01:01:47.212Z,2.05
2022-12-02T01:04:14.118Z,3.33
2022-12-02T01:06:40.797Z,3.03
2022-12-02T01:09:08.816Z,2.20
2022-12-02T01:11:36.222Z,2.15
2022-12-02T01:14:02.926Z,2.35
2022-12-02T01:16:29.862Z,2.47
2022-12-02T01:18:56.565Z,2.20
2022-12-02T01:21:23.580Z,2.65
2022-12-02T01:23:50.545Z,1.83
2022-12-02T01:26:17.288Z,2.08
2022-12-02T01:28:44.110Z,2.40
2022-12-02T01:31:10.935Z,2.15
2022-12-02T01:33:37.819Z,2.35
2022-12-02T01:36:05.928Z,2.40
2022-12-02T01:38:32.703Z,2.90
2022-12-02T01:40:59.985Z,2.33
2022-12-02T01:43:27.476Z,2.75
2022-12-02T01:45:56.716Z,2.00
2022-12-02T01:48:23.589Z,2.00
2022-12-02T01:50:51.058Z,3.25
2022-12-02T01:53:17.791Z,2.20
2022-12-02T01:55:44.638Z,2.50
2022-12-02T01:58:13.867Z,2.08
2022-12-02T02:00:40.938Z,2.00
2022-12-02T02:03:07.985Z,2.13
2022-12-02T02:05:35.407Z,2.80
2022-12-02T02:08:05.921Z,2.80
2022-12-02T02:10:34.709Z,3.40
2022-12-02T02:13:02.274Z,2.30
2022-12-02T02:15:29.888Z,2.63
2022-12-02T02:18:02.101Z,2.60
2022-12-02T02:20:33.464Z,2.20
2022-12-02T02:23:05.692Z,1.98
2022-12-02T02:25:40.160Z,2.00
2022-12-02T02:28:09.388Z,2.78
2022-12-02T02:30:37.602Z,2.40
2022-12-02T02:33:07.834Z,2.60
2022-12-02T02:35:36.947Z,2.65
2022-12-02T02:38:07.521Z,3.75
2022-12-02T02:40:35.401Z,2.25
2022-12-02T02:43:03.783Z,2.53
2022-12-02T02:45:33.933Z,2.47
2022-12-02T02:48:04.469Z,2.42
2022-12-02T02:50:32.941Z,3.22
2022-12-02T02:53:01.408Z,3.65
2022-12-02T02:55:31.256Z,2.33
2022-12-02T02:58:14.797Z,2.20
2022-12-02T03:00:50.779Z,4.35
2022-12-02T03:03:21.741Z,3.63
2022-12-02T03:05:51.710Z,3.10
2022-12-02T03:08:20.762Z,3.30
2022-12-02T03:10:48.119Z,2.67
2022-12-02T03:13:15.360Z,2.08
2022-12-02T03:15:42.215Z,2.30
2022-12-02T03:18:09.594Z,3.20
2022-12-02T03:20:36.336Z,2.65
2022-12-02T03:23:03.086Z,2.35
2022-12-02T03:25:31.135Z,3.13
2022-12-02T03:27:58.228Z,2.80
2022-12-02T03:30:25.048Z,3.08
2022-12-02T03:32:51.753Z,2.22
2022-12-02T03:35:18.793Z,3.22
2022-12-02T03:37:45.633Z,2.55
2022-12-02T03:40:12.875Z,2.83
2022-12-02T03:42:39.771Z,3.25
2022-12-02T03:45:07.343Z,2.35
2022-12-02T03:47:33.992Z,2.25
2022-12-02T03:50:01.643Z,3.38
2022-12-02T03:52:29.164Z,2.78
2022-12-02T03:54:56.885Z,2.85
2022-12-02T03:57:24.325Z,2.50
2022-12-02T03:59:51.110Z,2.47
2022-12-02T04:02:17.872Z,2.05
2022-12-02T04:04:44.589Z,2.10
2022-12-02T04:07:11.213Z,2.22
2022-12-02T04:09:37.921Z,2.65
2022-12-02T04:12:04.774Z,2.35
2022-12-02T04:14:31.526Z,2.58
2022-12-02T04:16:58.173Z,2.20
2022-12-02T04:19:25.007Z,2.22
2022-12-02T04:21:51.652Z,1.90
2022-12-02T04:24:18.445Z,3.35
2022-12-02T04:26:45.091Z,2.00
2022-12-02T04:29:11.930Z,2.55
2022-12-02T04:31:38.668Z,3.38
2022-12-02T04:34:05.351Z,2.67
2022-12-02T04:36:31.976Z,3.10
2022-12-02T04:38:58.669Z,2.75
2022-12-02T04:41:25.332Z,2.10
2022-12-02T04:43:53.225Z,2.20
2022-12-02T04:46:19.885Z,2.35
2022-12-02T04:48:46.704Z,2.30
2022-12-02T04:51:13.308Z,2.42
2022-12-02T04:53:39.973Z,2.45
2022-12-02T04:56:06.895Z,3.00
2022-12-02T04:58:33.606Z,2.30
2022-12-02T05:01:00.308Z,2.50
2022-12-02T05:03:27.016Z,2.70
2022-12-02T05:05:53.653Z,2.47
2022-12-02T05:08:20.355Z,3.15
2022-12-02T05:10:47.066Z,3.60
2022-12-02T05:13:13.772Z,3.35
2022-12-02T05:15:40.507Z,2.58
2022-12-02T05:18:07.216Z,2.92
2022-12-02T05:20:34.063Z,2.67
2022-12-02T05:23:00.835Z,2.53
2022-12-02T05:25:27.485Z,2.72
2022-12-02T05:27:55.364Z,2.63
2022-12-02T05:30:22.990Z,3.83
2022-12-02T05:32:51.418Z,3.65
2022-12-02T05:35:18.114Z,3.10
2022-12-02T05:37:44.833Z,2.70
2022-12-02T05:40:11.643Z,2.70
2022-12-02T05:42:40.018Z,2.40
2022-12-02T05:45:20.616Z,2.58
2022-12-02T05:47:50.949Z,2.33
2022-12-02T05:50:17.916Z,2.80
2022-12-02T05:52:51.593Z,3.25
2022-12-02T05:55:20.518Z,3.10
2022-12-02T05:57:48.529Z,2.40
2022-12-02T06:00:20.449Z,3.65
2022-12-02T06:03:00.883Z,3.88
2022-12-02T06:05:31.213Z,2.10
2022-12-02T06:08:08.836Z,3.05
2022-12-02T06:10:38.331Z,3.28
2022-12-02T06:13:14.356Z,2.55
2022-12-02T06:15:41.303Z,2.90
2022-12-02T06:18:15.080Z,3.28
2022-12-02T06:20:42.389Z,3.20
2022-12-02T06:23:15.615Z,4.18
2022-12-02T06:25:43.776Z,5.65
2022-12-02T06:28:30.772Z,4.65
2022-12-02T06:31:10.673Z,4.85
2022-12-02T06:33:39.550Z,3.78
2022-12-02T06:36:29.674Z,5.38
2022-12-02T06:39:02.842Z,2.67
2022-12-02T06:41:32.896Z,3.88
2022-12-02T06:44:20.596Z,3.47
2022-12-02T06:46:47.465Z,3.67
2022-12-02T06:49:20.895Z,3.10
2022-12-02T06:51:53.095Z,3.03
2022-12-02T06:54:23.100Z,2.55
2022-12-02T06:56:51.073Z,3.42
2022-12-02T06:59:21.685Z,4.70
2022-12-02T07:01:48.588Z,2.33
2022-12-02T07:04:32.373Z,4.30
2022-12-02T07:07:27.907Z,4.82
2022-12-02T07:10:07.931Z,3.50
2022-12-02T07:12:44.370Z,4.03
2022-12-02T07:15:31.121Z,3.22
2022-12-02T07:18:00.891Z,3.35
2022-12-02T07:20:37.672Z,4.85
2022-12-02T07:23:26.380Z,8.40
2022-12-02T07:25:55.317Z,9.90
2022-12-02T07:28:39.971Z,5.95
2022-12-02T07:31:23.461Z,19.92
2022-12-02T07:33:51.781Z,11.38
2022-12-02T07:36:18.870Z,6.15
2022-12-02T07:41:36.875Z,5.43
2022-12-02T07:44:04.997Z,4.05
2022-12-02T07:46:32.098Z,3.38
2022-12-02T07:48:58.839Z,3.30
2022-12-02T07:51:25.886Z,2.58
2022-12-02T07:53:52.554Z,3.17
2022-12-02T07:56:19.221Z,5.40
2022-12-02T07:59:11.243Z,3.40
2022-12-02T08:01:32.896Z,2.55
2022-12-02T08:03:59.886Z,7.80
2022-12-02T08:06:26.657Z,6.55
2022-12-02T08:08:53.429Z,4.95
2022-12-02T08:11:21.511Z,10.52
2022-12-02T08:13:48.238Z,3.17
2022-12-02T08:16:15.000Z,2.85
2022-12-02T08:18:41.801Z,2.53
2022-12-02T08:21:09.545Z,3.25
2022-12-02T08:23:37.243Z,3.85
2022-12-02T08:26:04.456Z,3.78
2022-12-02T08:28:31.119Z,3.35
2022-12-02T08:30:57.971Z,5.10
2022-12-02T08:33:24.719Z,6.00
2022-12-02T08:35:51.480Z,4.32
2022-12-02T08:38:18.181Z,5.00
2022-12-02T08:40:44.880Z,5.40
2022-12-02T08:43:11.599Z,7.50
2022-12-02T08:45:38.329Z,9.05
2022-12-02T08:48:05.151Z,10.82
2022-12-02T08:50:31.949Z,11.40
2022-12-02T08:52:58.929Z,10.40
2022-12-02T08:55:26.613Z,7.45
2022-12-02T08:57:53.502Z,8.23
2022-12-02T09:00:20.461Z,7.40
2022-12-02T09:02:47.767Z,8.32
2022-12-02T09:05:15.196Z,4.15
2022-12-02T09:07:41.949Z,5.95
2022-12-02T09:10:10.401Z,5.15
2022-12-02T09:12:37.087Z,4.30
2022-12-02T09:15:04.763Z,4.20
2022-12-02T09:17:31.487Z,5.22
2022-12-02T09:19:58.153Z,4.75
2022-12-02T09:22:24.794Z,4.65
2022-12-02T09:24:51.698Z,2.88
2022-12-02T09:27:18.818Z,3.08
2022-12-02T09:29:45.600Z,3.75
2022-12-02T09:32:12.303Z,2.60
2022-12-02T09:34:38.993Z,2.72
2022-12-02T09:37:05.678Z,2.33
2022-12-02T09:39:37.188Z,2.88
2022-12-02T09:42:06.706Z,3.05
2022-12-02T09:44:33.450Z,3.40
2022-12-02T09:47:00.646Z,2.10
2022-12-02T09:49:27.476Z,11.65
2022-12-02T09:51:58.546Z,2.50
2022-12-02T09:54:25.367Z,2.03
2022-12-02T09:56:52.303Z,2.40
2022-12-02T09:59:19.030Z,2.13
2022-12-02T10:01:47.846Z,2.10
2022-12-02T10:04:19.921Z,1.95
2022-12-02T10:06:47.470Z,3.95
2022-12-02T10:09:23.757Z,3.78
2022-12-02T10:11:52.214Z,2.25
2022-12-02T10:14:19.224Z,4.47
2022-12-02T10:16:46.268Z,3.80
2022-12-02T10:19:17.603Z,3.95
2022-12-02T10:21:44.376Z,2.88
2022-12-02T10:24:12.655Z,5.95
2022-12-02T10:26:50.687Z,5.70
2022-12-02T10:29:18.810Z,4.00
2022-12-02T10:31:59.092Z,5.78
2022-12-02T10:34:28.633Z,3.65
2022-12-02T10:37:15.949Z,3.03
2022-12-02T10:39:42.729Z,6.13
2022-12-02T10:42:16.861Z,4.75
2022-12-02T10:44:45.880Z,3.17
2022-12-02T10:47:15.512Z,3.92
2022-12-02T10:49:59.349Z,4.03
2022-12-02T10:52:35.350Z,2.90
2022-12-02T10:55:04.200Z,2.75
2022-12-02T10:57:33.639Z,2.75
2022-12-02T11:00:05.297Z,1.85
2022-12-02T11:02:40.059Z,2.22
2022-12-02T11:05:37.625Z,3.03
2022-12-02T11:08:07.730Z,2.88
2022-12-02T11:10:41.227Z,2.50
2022-12-02T11:13:13.751Z,2.90
2022-12-02T11:15:52.357Z,3.28
2022-12-02T11:18:24.878Z,2.50
2022-12-02T11:21:01.544Z,3.35
2022-12-02T11:23:29.920Z,3.08
2022-12-02T11:25:56.702Z,3.03
2022-12-02T11:28:29.271Z,2.25
2022-12-02T11:31:11.471Z,4.65
2022-12-02T11:33:48.647Z,3.63
2022-12-02T11:36:19.347Z,3.72
2022-12-02T11:38:51.629Z,3.75
2022-12-02T11:41:20.345Z,3.60
2022-12-02T11:43:46.938Z,3.45
2022-12-02T11:46:18.885Z,3.20
2022-12-02T11:48:57.218Z,9.57
2022-12-02T11:51:40.463Z,4.43
2022-12-02T11:54:15.670Z,3.55
2022-12-02T11:56:45.290Z,4.00
2022-12-02T11:59:24.845Z,5.70
2022-12-02T12:01:51.863Z,3.35
2022-12-02T12:04:24.662Z,2.20
2022-12-02T12:06:59.260Z,2.53
2022-12-02T12:09:29.763Z,2.20
2022-12-02T12:12:16.509Z,2.78
2022-12-02T12:15:04.683Z,1.95
2022-12-02T12:17:42.177Z,2.22
2022-12-02T12:20:15.132Z,2.80
2022-12-02T12:22:41.985Z,2.88
2022-12-02T12:25:33.835Z,4.03
2022-12-02T12:28:03.523Z,1.90
2022-12-02T12:30:30.290Z,2.92
2022-12-02T12:32:57.110Z,2.47
2022-12-02T12:35:23.762Z,3.15
2022-12-02T12:37:50.402Z,3.10
2022-12-02T12:40:17.117Z,2.63
2022-12-02T12:42:43.765Z,2.80
2022-12-02T12:45:10.725Z,2.95
2022-12-02T12:47:37.405Z,4.07
2022-12-02T12:50:04.535Z,2.95
2022-12-02T12:52:31.294Z,3.58
2022-12-02T12:54:57.955Z,3.70
2022-12-02T12:57:24.709Z,2.88
2022-12-02T12:59:51.627Z,3.65
2022-12-02T13:02:18.705Z,4.22
2022-12-02T13:04:45.574Z,2.42
2022-12-02T13:07:12.333Z,3.15
2022-12-02T13:09:39.065Z,2.78
2022-12-02T13:12:11.243Z,4.22
2022-12-02T13:14:39.653Z,3.33
2022-12-02T13:17:06.558Z,2.67
2022-12-02T13:19:33.454Z,3.13
2022-12-02T13:22:00.115Z,3.92
2022-12-02T13:24:27.149Z,3.35
2022-12-02T13:26:53.770Z,3.80
2022-12-02T13:29:20.585Z,4.45
2022-12-02T13:31:47.303Z,3.78
2022-12-02T13:34:14.189Z,3.00
2022-12-02T13:36:41.082Z,3.10
2022-12-02T13:39:11.477Z,3.08
2022-12-02T13:41:38.510Z,3.05
2022-12-02T13:44:05.243Z,2.40
2022-12-02T13:46:32.263Z,2.40
2022-12-02T13:48:59.141Z,4.87
2022-12-02T13:51:25.958Z,2.67
2022-12-02T13:53:58.586Z,3.97
2022-12-02T13:56:26.151Z,3.25
2022-12-02T13:58:52.835Z,3.30
2022-12-02T14:01:20.053Z,3.85
2022-12-02T14:03:46.833Z,4.20
2022-12-02T14:06:13.857Z,4.95
2022-12-02T14:08:40.598Z,4.68
2022-12-02T14:11:07.659Z,5.30
2022-12-02T14:13:34.838Z,3.53
2022-12-02T14:16:01.701Z,4.43
2022-12-02T14:18:31.365Z,4.13
2022-12-02T14:20:58.170Z,2.80
2022-12-02T14:23:24.995Z,3.60
2022-12-02T14:25:51.774Z,3.80
2022-12-02T14:28:18.456Z,3.85
2022-12-02T14:30:46.405Z,3.13
2022-12-02T14:33:13.561Z,3.92
2022-12-02T14:35:40.404Z,3.55
2022-12-02T14:38:07.072Z,5.68
2022-12-02T14:40:34.711Z,4.40
2022-12-02T14:43:01.482Z,4.35
2022-12-02T14:45:28.305Z,4.55
2022-12-02T14:47:56.149Z,6.18
2022-12-02T14:50:27.695Z,4.65
2022-12-02T14:52:54.673Z,4.05
2022-12-02T14:55:21.482Z,4.72
2022-12-02T14:57:48.492Z,7.35
2022-12-02T15:00:15.568Z,4.05
2022-12-02T15:02:42.606Z,5.60
2022-12-02T15:05:20.855Z,6.40
2022-12-02T15:07:47.704Z,4.30
2022-12-02T15:10:15.945Z,3.95
2022-12-02T15:12:42.938Z,3.00
2022-12-02T15:15:36.699Z,3.75
2022-12-02T15:17:56.978Z,3.65
2022-12-02T15:20:24.027Z,4.32
2022-12-02T15:22:50.941Z,15.48
2022-12-02T15:25:19.848Z,6.60
2022-12-02T15:27:46.875Z,3.60
2022-12-02T15:30:16.740Z,10.82
2022-12-02T15:32:45.677Z,66.47
2022-12-02T15:35:12.879Z,57.75
2022-12-02T15:37:40.029Z,65.55
2022-12-02T15:40:08.203Z,10.13
2022-12-02T15:42:34.977Z,13.38
2022-12-02T15:45:01.685Z,5.90
2022-12-02T15:47:28.505Z,4.47
2022-12-02T15:49:58.137Z,4.57
2022-12-02T15:52:26.036Z,2.70
2022-12-02T15:55:01.509Z,3.35
2022-12-02T15:57:34.503Z,3.20
2022-12-02T16:00:01.439Z,6.18
2022-12-02T16:02:28.343Z,5.32
2022-12-02T16:04:55.575Z,6.60
2022-12-02T16:07:22.278Z,7.15
2022-12-02T16:09:49.220Z,5.45
2022-12-02T16:12:18.699Z,3.00
2022-12-02T16:14:49.312Z,5.93
2022-12-02T16:17:18.729Z,6.20
2022-12-02T16:19:45.422Z,5.25
2022-12-02T16:22:12.178Z,3.97
2022-12-02T16:24:39.057Z,4.78
2022-12-02T16:27:05.839Z,4.25
2022-12-02T16:29:33.669Z,4.73
2022-12-02T16:32:00.514Z,4.05
2022-12-02T16:34:27.264Z,3.40
2022-12-02T16:36:56.429Z,3.35
2022-12-02T16:39:23.110Z,2.70
2022-12-02T16:41:49.886Z,4.20
2022-12-02T16:44:16.634Z,6.05
2022-12-02T16:46:43.494Z,2.40
2022-12-02T16:49:10.952Z,3.08
2022-12-02T16:51:37.835Z,2.97
2022-12-02T16:54:04.697Z,3.23
2022-12-02T16:56:33.242Z,3.92
2022-12-02T16:59:01.638Z,4.50
2022-12-02T17:01:30.981Z,5.28
2022-12-02T17:03:58.400Z,3.25
2022-12-02T17:06:27.425Z,3.07
2022-12-02T17:08:56.069Z,3.95
2022-12-02T17:11:22.965Z,4.05
2022-12-02T17:13:49.905Z,3.22
2022-12-02T17:16:16.933Z,4.00
2022-12-02T17:18:43.714Z,3.97
2022-12-02T17:21:10.481Z,3.72
2022-12-02T17:23:37.260Z,3.22
2022-12-02T17:26:04.050Z,3.85
2022-12-02T17:28:30.900Z,4.10
2022-12-02T17:30:57.567Z,4.93
2022-12-02T17:33:24.565Z,5.68
2022-12-02T17:35:51.224Z,4.57
2022-12-02T17:38:17.982Z,4.38
2022-12-02T17:40:44.721Z,4.90
2022-12-02T17:43:11.508Z,6.68
2022-12-02T17:45:38.275Z,5.95
2022-12-02T17:48:05.457Z,4.40
2022-12-02T17:50:32.104Z,4.78
2022-12-02T17:52:58.784Z,4.30
2022-12-02T17:55:25.481Z,4.82
2022-12-02T17:57:52.332Z,7.03
2022-12-02T18:00:19.337Z,6.50
2022-12-02T18:02:46.253Z,5.07
2022-12-02T18:05:13.283Z,6.63
2022-12-02T18:07:40.426Z,8.35
2022-12-02T18:10:07.554Z,8.55
2022-12-02T18:12:34.395Z,9.80
2022-12-02T18:15:01.153Z,5.53
2022-12-02T18:17:28.055Z,7.13
2022-12-02T18:19:56.108Z,10.50
2022-12-02T18:22:22.843Z,6.15
2022-12-02T18:24:49.699Z,4.63
2022-12-02T18:27:16.639Z,5.35
2022-12-02T18:29:43.714Z,11.75
2022-12-02T18:32:10.834Z,25.17
2022-12-02T18:34:37.641Z,8.35
2022-12-02T18:37:04.455Z,7.72
2022-12-02T18:39:31.280Z,9.98
2022-12-02T18:41:57.993Z,4.10
2022-12-02T18:44:24.834Z,3.67
2022-12-02T18:46:51.532Z,5.18
2022-12-02T18:49:18.362Z,4.25
2022-12-02T18:51:45.264Z,6.10
2022-12-02T18:54:12.304Z,11.60
2022-12-02T18:56:39.280Z,4.63
2022-12-02T18:59:06.093Z,6.57
2022-12-02T19:01:39.966Z,6.53
2022-12-02T19:04:06.714Z,6.78
2022-12-02T19:06:33.382Z,7.03
2022-12-02T19:09:00.117Z,5.72
2022-12-02T19:11:26.798Z,9.80
2022-12-02T19:13:53.515Z,9.73
2022-12-02T19:16:20.259Z,6.38
2022-12-02T19:18:47.095Z,4.15
2022-12-02T19:21:13.791Z,5.10
2022-12-02T19:23:43.870Z,5.43
2022-12-02T19:26:11.655Z,4.85
2022-12-02T19:28:38.375Z,6.22
2022-12-02T19:31:05.358Z,4.97
2022-12-02T19:33:32.251Z,5.57
2022-12-02T19:35:59.141Z,7.63
2022-12-02T19:38:25.975Z,4.97
2022-12-02T19:40:52.684Z,6.25
2022-12-02T19:43:19.306Z,5.47
2022-12-02T19:45:45.995Z,4.80
2022-12-02T19:48:12.687Z,4.30
2022-12-02T19:50:39.405Z,9.90
2022-12-02T19:53:06.144Z,4.90
2022-12-02T19:55:32.830Z,4.07
2022-12-02T19:57:59.464Z,3.30
2022-12-02T20:00:26.409Z,3.50
2022-12-02T20:02:53.078Z,3.88
2022-12-02T20:05:23.989Z,3.65
2022-12-02T20:07:51.020Z,3.85
2022-12-02T20:10:19.692Z,5.30
2022-12-02T20:12:46.552Z,8.48
2022-12-02T20:15:13.543Z,5.28
2022-12-02T20:17:40.518Z,4.72
2022-12-02T20:20:10.231Z,4.78
2022-12-02T20:22:37.062Z,6.20
2022-12-02T20:25:03.852Z,4.43
2022-12-02T20:27:31.051Z,7.85
2022-12-02T20:29:57.676Z,8.45
2022-12-02T20:32:24.453Z,6.38
2022-12-02T20:34:51.392Z,4.90
2022-12-02T20:37:18.387Z,4.43
2022-12-02T20:39:45.046Z,5.32
2022-12-02T20:42:11.758Z,5.13
2022-12-02T20:44:38.462Z,5.45
2022-12-02T20:47:05.283Z,3.00
2022-12-02T20:49:32.002Z,3.13
2022-12-02T20:51:58.694Z,3.53
2022-12-02T20:54:26.114Z,3.10
2022-12-02T20:56:52.952Z,3.35
2022-12-02T20:59:19.600Z,2.90
2022-12-02T21:01:48.233Z,3.78
2022-12-02T21:04:15.006Z,3.17
2022-12-02T21:06:41.697Z,4.03
2022-12-02T21:09:08.440Z,3.17
2022-12-02T21:11:35.078Z,3.45
2022-12-02T21:14:01.737Z,4.20
2022-12-02T21:16:28.543Z,2.92
2022-12-02T21:18:55.194Z,3.92
2022-12-02T21:21:21.841Z,3.15
2022-12-02T21:23:48.489Z,3.10
2022-12-02T21:26:15.198Z,4.55
2022-12-02T21:28:41.794Z,4.38
2022-12-02T21:31:08.479Z,4.60
2022-12-02T21:33:35.140Z,4.10
2022-12-02T21:36:01.942Z,2.90
2022-12-02T21:38:28.817Z,3.67
2022-12-02T21:40:55.561Z,4.70
2022-12-02T21:43:22.234Z,4.63
2022-12-02T21:45:49.010Z,2.55
2022-12-02T21:48:15.753Z,3.13
2022-12-02T21:50:42.409Z,2.80
2022-12-02T21:53:09.149Z,2.92
2022-12-02T21:55:35.876Z,2.75
2022-12-02T21:58:02.841Z,2.85
2022-12-02T22:00:29.819Z,2.90
2022-12-02T22:02:56.613Z,3.05
2022-12-02T22:05:23.473Z,3.13
2022-12-02T22:07:50.351Z,2.78
2022-12-02T22:10:22.709Z,2.30
2022-12-02T22:12:50.028Z,2.60
2022-12-02T22:15:19.221Z,2.50
2022-12-02T22:17:46.289Z,5.68
2022-12-02T22:20:18.012Z,5.32
2022-12-02T22:22:44.995Z,4.20
2022-12-02T22:25:11.716Z,2.90
2022-12-02T22:27:38.409Z,3.45
2022-12-02T22:30:08.598Z,2.92
2022-12-02T22:32:35.590Z,3.53
2022-12-02T22:35:03.458Z,2.47
2022-12-02T22:37:30.258Z,3.57
2022-12-02T22:39:56.868Z,2.53
2022-12-02T22:42:24.057Z,2.42
2022-12-02T22:44:51.377Z,2.28
2022-12-02T22:47:18.373Z,3.05
2022-12-02T22:49:45.114Z,2.90
2022-12-02T22:52:11.770Z,2.75
2022-12-02T22:54:38.393Z,3.13
2022-12-02T22:57:05.085Z,2.42
2022-12-02T22:59:31.795Z,3.05
2022-12-02T23:01:58.511Z,2.80
2022-12-02T23:04:26.258Z,2.22
2022-12-02T23:06:52.924Z,2.05
2022-12-02T23:09:19.549Z,3.00
2022-12-02T23:11:46.402Z,2.10
2022-12-02T23:14:13.156Z,2.45
2022-12-02T23:16:39.916Z,2.40
2022-12-02T23:19:06.792Z,2.60
2022-12-02T23:21:33.436Z,2.58
2022-12-02T23:24:00.037Z,4.28
2022-12-02T23:26:26.712Z,2.13
2022-12-02T23:28:53.310Z,1.92
2022-12-02T23:31:20.051Z,3.20
2022-12-02T23:33:46.787Z,1.75
2022-12-02T23:36:13.435Z,2.92
2022-12-02T23:38:40.176Z,2.60
2022-12-02T23:41:06.985Z,1.83
2022-12-02T23:43:33.934Z,2.33
2022-12-02T23:46:00.685Z,2.38
2022-12-02T23:48:27.369Z,1.88
2022-12-02T23:50:54.003Z,2.22
2022-12-02T23:53:20.685Z,2.20
2022-12-02T23:55:47.357Z,2.85
2022-12-02T23:58:13.998Z,2.10
